createdAt,value
2019-03-08T00:00:54.858Z,8.56
2019-03-08T00:03:24.340Z,8.54
2019-03-08T00:05:53.753Z,8.49
2019-03-08T00:08:23.205Z,8.49
2019-03-08T00:10:52.762Z,8.43
2019-03-08T00:13:22.366Z,8.40
2019-03-08T00:15:51.895Z,8.36
2019-03-08T00:18:21.368Z,8.31
2019-03-08T00:20:50.749Z,8.36
2019-03-08T00:23:20.172Z,8.44
2019-03-08T00:25:49.664Z,8.46
2019-03-08T00:28:19.242Z,8.44
2019-03-08T00:30:48.680Z,8.41
2019-03-08T00:33:18.086Z,8.39
2019-03-08T00:35:47.583Z,8.33
2019-03-08T00:38:17.110Z,8.25
2019-03-08T00:40:46.781Z,8.30
2019-03-08T00:43:16.209Z,8.34
2019-03-08T00:45:45.748Z,8.36
2019-03-08T00:48:15.218Z,8.34
2019-03-08T00:50:44.616Z,8.28
2019-03-08T00:53:15.681Z,8.23
2019-03-08T00:55:45.301Z,8.22
2019-03-08T00:58:14.709Z,8.19
2019-03-08T01:00:45.527Z,8.18
2019-03-08T01:03:14.992Z,8.09
2019-03-08T01:05:44.393Z,7.98
2019-03-08T01:08:14.132Z,7.92
2019-03-08T01:10:43.621Z,7.83
2019-03-08T01:13:13.104Z,7.81
2019-03-08T01:15:42.526Z,7.81
2019-03-08T01:18:11.940Z,7.90
2019-03-08T01:20:41.418Z,7.92
2019-03-08T01:23:10.922Z,7.87
2019-03-08T01:25:40.300Z,7.81
2019-03-08T01:28:11.707Z,7.73
2019-03-08T01:30:41.975Z,7.68
2019-03-08T01:33:11.959Z,7.68
2019-03-08T01:35:41.530Z,7.68
2019-03-08T01:38:11.060Z,7.66
2019-03-08T01:40:40.427Z,7.58
2019-03-08T01:43:09.823Z,7.60
2019-03-08T01:45:39.363Z,7.58
2019-03-08T01:48:09.218Z,7.54
2019-03-08T01:50:38.632Z,7.53
2019-03-08T01:53:08.067Z,7.51
2019-03-08T01:55:37.603Z,7.48
2019-03-08T01:58:07.093Z,7.47
2019-03-08T02:00:36.642Z,7.46
2019-03-08T02:03:06.427Z,7.49
2019-03-08T02:05:35.920Z,7.39
2019-03-08T02:08:05.450Z,7.33
2019-03-08T02:10:34.924Z,7.28
2019-03-08T02:13:04.431Z,7.28
2019-03-08T02:15:34.433Z,7.20
2019-03-08T02:18:03.904Z,7.13
2019-03-08T02:20:33.294Z,7.15
2019-03-08T02:23:02.743Z,7.11
2019-03-08T02:25:32.212Z,7.09
2019-03-08T02:28:01.719Z,7.10
2019-03-08T02:30:31.171Z,7.03
2019-03-08T02:33:00.571Z,6.99
2019-03-08T02:35:30.140Z,6.94
2019-03-08T02:37:59.756Z,6.89
2019-03-08T02:40:33.819Z,6.86
2019-03-08T02:43:04.695Z,6.82
2019-03-08T02:45:34.275Z,6.80
2019-03-08T02:48:03.739Z,6.76
2019-03-08T02:50:33.163Z,6.73
2019-03-08T02:53:02.644Z,6.74
2019-03-08T02:55:32.334Z,6.77
2019-03-08T02:58:01.767Z,6.78
2019-03-08T03:00:35.618Z,6.76
2019-03-08T03:03:05.185Z,6.74
2019-03-08T03:05:34.609Z,6.72
2019-03-08T03:08:05.722Z,6.72
2019-03-08T03:10:35.201Z,6.71
2019-03-08T03:13:04.813Z,6.65
2019-03-08T03:15:34.205Z,6.65
2019-03-08T03:18:03.707Z,6.64
2019-03-08T03:20:33.237Z,6.63
2019-03-08T03:23:02.724Z,6.59
2019-03-08T03:25:32.145Z,6.61
2019-03-08T03:28:01.605Z,6.60
2019-03-08T03:30:31.190Z,6.66
2019-03-08T03:33:00.585Z,6.66
2019-03-08T03:35:30.500Z,6.74
2019-03-08T03:37:59.983Z,6.79
2019-03-08T03:40:29.374Z,6.76
2019-03-08T03:42:58.909Z,6.75
2019-03-08T03:45:28.450Z,6.81
2019-03-08T03:47:57.957Z,6.85
2019-03-08T03:50:27.407Z,6.85
2019-03-08T03:52:56.886Z,6.93
2019-03-08T03:55:26.378Z,6.89
2019-03-08T03:57:55.902Z,6.83
2019-03-08T04:00:25.401Z,6.80
2019-03-08T04:02:55.116Z,6.75
2019-03-08T04:05:24.654Z,6.80
2019-03-08T04:07:54.123Z,6.80
2019-03-08T04:10:23.636Z,6.80
2019-03-08T04:12:53.149Z,6.83
2019-03-08T04:15:22.754Z,6.82
2019-03-08T04:17:52.155Z,6.83
2019-03-08T04:20:21.694Z,6.82
2019-03-08T04:22:51.266Z,6.78
2019-03-08T04:25:20.650Z,6.75
2019-03-08T04:27:50.088Z,6.73
2019-03-08T04:30:19.856Z,6.67
2019-03-08T04:32:49.487Z,6.78
2019-03-08T04:35:18.932Z,6.82
2019-03-08T04:37:48.360Z,6.81
2019-03-08T04:40:17.860Z,6.78
2019-03-08T04:42:47.374Z,6.77
2019-03-08T04:45:18.055Z,6.74
2019-03-08T04:47:47.569Z,6.70
2019-03-08T04:50:17.579Z,6.73
2019-03-08T04:52:47.028Z,6.66
2019-03-08T04:55:16.922Z,6.63
2019-03-08T04:57:47.512Z,6.67
2019-03-08T05:00:20.267Z,6.64
2019-03-08T05:02:49.735Z,6.66
2019-03-08T05:05:19.139Z,6.72
2019-03-08T05:07:48.637Z,6.69
2019-03-08T05:10:18.222Z,6.69
2019-03-08T05:12:47.654Z,6.71
2019-03-08T05:15:17.597Z,6.77
2019-03-08T05:17:47.049Z,6.82
2019-03-08T05:20:16.534Z,6.89
2019-03-08T05:22:46.092Z,6.95
2019-03-08T05:25:15.782Z,6.95
2019-03-08T05:27:45.243Z,6.93
2019-03-08T05:30:15.030Z,6.93
2019-03-08T05:32:44.501Z,6.98
2019-03-08T05:35:15.105Z,7.02
2019-03-08T05:37:46.613Z,7.09
2019-03-08T05:40:16.167Z,7.29
2019-03-08T05:42:45.634Z,7.45
2019-03-08T05:45:15.610Z,7.54
2019-03-08T05:47:45.092Z,7.59
2019-03-08T05:50:14.800Z,7.65
2019-03-08T05:52:44.629Z,7.71
2019-03-08T05:55:14.272Z,7.78
2019-03-08T05:57:43.853Z,7.85
2019-03-08T06:00:16.233Z,7.96
2019-03-08T06:02:45.664Z,7.99
2019-03-08T06:05:15.163Z,8.07
2019-03-08T06:07:44.658Z,8.10
2019-03-08T06:10:33.985Z,8.11
2019-03-08T06:13:03.547Z,8.09
2019-03-08T06:15:32.937Z,7.97
2019-03-08T06:18:02.485Z,8.10
2019-03-08T06:20:32.053Z,8.08
2019-03-08T06:23:01.493Z,8.00
2019-03-08T06:25:30.932Z,8.09
2019-03-08T06:28:00.427Z,8.22
2019-03-08T06:30:29.954Z,8.28
2019-03-08T06:32:59.454Z,8.40
2019-03-08T06:35:28.913Z,8.54
2019-03-08T06:37:58.400Z,8.67
2019-03-08T06:40:27.888Z,8.86
2019-03-08T06:42:57.418Z,8.95
2019-03-08T06:45:26.910Z,9.04
2019-03-08T06:47:56.392Z,9.11
2019-03-08T06:50:25.882Z,9.21
2019-03-08T06:52:55.454Z,9.28
2019-03-08T06:55:24.934Z,9.42
2019-03-08T06:58:00.837Z,9.48
2019-03-08T07:00:52.197Z,9.63
2019-03-08T07:03:21.719Z,9.75
2019-03-08T07:05:51.257Z,9.90
2019-03-08T07:08:20.723Z,9.94
2019-03-08T07:10:50.330Z,10.03
2019-03-08T07:13:19.790Z,10.21
2019-03-08T07:15:49.329Z,10.37
2019-03-08T07:18:18.933Z,10.56
2019-03-08T07:21:05.000Z,10.62
2019-03-08T07:23:49.163Z,10.74
2019-03-08T07:26:25.815Z,10.91
2019-03-08T07:29:19.050Z,11.01
2019-03-08T07:32:25.470Z,11.12
2019-03-08T07:35:12.186Z,11.22
2019-03-08T07:37:56.988Z,11.35
2019-03-08T07:40:51.758Z,11.45
2019-03-08T07:43:39.150Z,11.53
2019-03-08T07:46:40.355Z,11.59
2019-03-08T07:49:46.573Z,11.75
2019-03-08T07:52:22.068Z,11.93
2019-03-08T07:55:10.531Z,11.90
2019-03-08T07:57:57.415Z,12.09
2019-03-08T08:00:44.405Z,11.90
2019-03-08T08:03:19.812Z,12.05
2019-03-08T08:06:23.120Z,12.22
2019-03-08T08:09:17.428Z,12.48
2019-03-08T08:12:14.401Z,12.72
2019-03-08T08:14:52.608Z,13.06
2019-03-08T08:17:44.042Z,13.18
2019-03-08T08:20:33.012Z,13.28
2019-03-08T08:23:17.165Z,13.54
2019-03-08T08:26:11.656Z,13.68
2019-03-08T08:28:50.195Z,13.82
2019-03-08T08:31:40.889Z,13.95
2019-03-08T08:34:35.755Z,13.97
2019-03-08T08:37:24.173Z,14.21
2019-03-08T08:40:12.642Z,14.31
2019-03-08T08:43:01.076Z,14.38
2019-03-08T08:45:52.559Z,14.51
2019-03-08T08:48:50.694Z,14.57
2019-03-08T08:51:25.548Z,14.61
2019-03-08T08:54:09.334Z,14.60
2019-03-08T08:57:00.700Z,14.73
2019-03-08T08:59:40.678Z,14.91
2019-03-08T09:02:22.406Z,15.03
2019-03-08T09:05:15.991Z,14.98
2019-03-08T09:08:34.000Z,15.18
2019-03-08T09:11:09.536Z,15.04
2019-03-08T09:13:50.618Z,15.34
2019-03-08T09:16:48.162Z,15.56
2019-03-08T09:19:42.173Z,15.70
2019-03-08T09:22:30.824Z,15.93
2019-03-08T09:25:05.995Z,16.01
2019-03-08T09:27:47.083Z,15.92
2019-03-08T09:30:26.026Z,15.89
2019-03-08T09:33:17.211Z,16.00
2019-03-08T09:36:04.439Z,16.09
2019-03-08T09:38:55.924Z,16.30
2019-03-08T09:41:50.125Z,16.34
2019-03-08T09:44:36.833Z,16.25
2019-03-08T09:47:40.163Z,16.47
2019-03-08T09:50:21.630Z,16.48
2019-03-08T09:53:23.694Z,16.46
2019-03-08T09:56:04.581Z,16.55
2019-03-08T09:58:51.797Z,16.50
2019-03-08T10:01:34.372Z,16.71
2019-03-08T10:04:23.042Z,16.76
2019-03-08T10:07:24.251Z,17.07
2019-03-08T10:10:00.464Z,16.91
2019-03-08T10:12:47.757Z,17.18
2019-03-08T10:15:51.614Z,17.16
2019-03-08T10:18:40.205Z,17.18
2019-03-08T10:21:18.484Z,17.05
2019-03-08T10:24:06.123Z,17.38
2019-03-08T10:26:54.580Z,17.59
2019-03-08T10:29:35.757Z,17.63
2019-03-08T10:32:15.689Z,17.61
2019-03-08T10:35:23.515Z,17.73
2019-03-08T10:38:09.481Z,17.78
2019-03-08T10:40:51.663Z,17.82
2019-03-08T10:43:25.744Z,17.98
2019-03-08T10:46:26.162Z,18.20
2019-03-08T10:49:11.515Z,18.30
2019-03-08T10:52:17.901Z,18.47
2019-03-08T10:55:05.116Z,18.24
2019-03-08T10:57:48.789Z,18.24
2019-03-08T11:00:37.100Z,18.39
2019-03-08T11:03:28.380Z,18.27
2019-03-08T11:06:09.582Z,18.13
2019-03-08T11:09:03.657Z,18.10
2019-03-08T11:11:52.076Z,18.30
2019-03-08T11:14:38.812Z,18.61
2019-03-08T11:17:27.612Z,18.62
2019-03-08T11:20:22.087Z,18.63
2019-03-08T11:23:09.087Z,18.72
2019-03-08T11:26:03.237Z,18.69
2019-03-08T11:28:41.690Z,18.76
2019-03-08T11:31:45.459Z,19.01
2019-03-08T11:34:32.533Z,19.10
2019-03-08T11:37:27.859Z,19.04
2019-03-08T11:40:22.446Z,19.17
2019-03-08T11:43:13.782Z,19.38
2019-03-08T11:45:55.329Z,19.51
2019-03-08T11:48:59.212Z,19.62
2019-03-08T11:51:53.540Z,19.49
2019-03-08T11:54:41.210Z,19.28
2019-03-08T11:57:29.682Z,19.55
2019-03-08T12:00:16.673Z,19.48
2019-03-08T12:02:56.156Z,19.75
2019-03-08T12:05:47.644Z,19.90
2019-03-08T12:08:29.207Z,20.03
2019-03-08T12:11:32.601Z,20.15
2019-03-08T12:14:09.638Z,20.26
2019-03-08T12:16:58.064Z,20.31
2019-03-08T12:19:46.479Z,20.40
2019-03-08T12:22:37.912Z,20.56
2019-03-08T12:25:29.708Z,20.65
2019-03-08T12:28:18.126Z,20.76
2019-03-08T12:31:18.301Z,20.86
2019-03-08T12:34:05.291Z,20.84
2019-03-08T12:36:50.757Z,20.92
2019-03-08T12:39:35.488Z,20.93
2019-03-08T12:42:22.549Z,21.04
2019-03-08T12:45:09.679Z,21.03
2019-03-08T12:47:58.135Z,21.09
2019-03-08T12:50:34.937Z,20.86
2019-03-08T12:53:23.255Z,20.89
2019-03-08T12:56:20.508Z,20.91
2019-03-08T12:59:04.851Z,20.85
2019-03-08T13:01:46.788Z,20.90
2019-03-08T13:04:42.383Z,21.19
2019-03-08T13:07:36.867Z,21.47
2019-03-08T13:10:13.195Z,21.85
2019-03-08T13:12:42.966Z,22.22
2019-03-08T13:15:14.435Z,22.51
2019-03-08T13:17:43.878Z,22.77
2019-03-08T13:20:15.875Z,22.87
2019-03-08T13:22:45.387Z,22.59
2019-03-08T13:25:15.004Z,22.51
2019-03-08T13:27:44.525Z,22.52
2019-03-08T13:30:18.926Z,22.13
2019-03-08T13:32:48.420Z,21.65
2019-03-08T13:35:17.977Z,21.63
2019-03-08T13:37:47.428Z,21.78
2019-03-08T13:40:17.018Z,21.95
2019-03-08T13:42:46.462Z,22.06
2019-03-08T13:45:16.921Z,22.15
2019-03-08T13:47:46.513Z,22.26
2019-03-08T13:50:16.024Z,22.19
2019-03-08T13:52:45.936Z,22.33
2019-03-08T13:55:16.070Z,22.41
2019-03-08T13:57:45.578Z,22.44
2019-03-08T14:00:16.070Z,22.28
2019-03-08T14:02:45.560Z,22.32
2019-03-08T14:05:15.984Z,22.24
2019-03-08T14:07:45.555Z,22.29
2019-03-08T14:10:16.020Z,22.31
2019-03-08T14:12:45.442Z,22.04
2019-03-08T14:15:15.290Z,21.97
2019-03-08T14:17:44.808Z,21.81
2019-03-08T14:20:17.077Z,21.73
2019-03-08T14:22:46.595Z,21.72
2019-03-08T14:25:16.069Z,21.81
2019-03-08T14:27:45.510Z,21.65
2019-03-08T14:30:16.914Z,21.44
2019-03-08T14:32:46.665Z,21.48
2019-03-08T14:35:16.256Z,21.60
2019-03-08T14:37:45.715Z,21.17
2019-03-08T14:40:26.408Z,21.03
2019-03-08T14:43:01.455Z,21.20
2019-03-08T14:45:40.519Z,21.10
2019-03-08T14:48:10.995Z,21.05
2019-03-08T14:50:40.630Z,20.98
2019-03-08T14:53:10.129Z,20.72
2019-03-08T14:55:39.716Z,20.83
2019-03-08T14:58:09.185Z,20.85
2019-03-08T15:00:38.622Z,20.74
2019-03-08T15:03:08.080Z,20.80
2019-03-08T15:05:37.593Z,20.76
2019-03-08T15:08:07.088Z,20.89
2019-03-08T15:10:39.694Z,20.73
2019-03-08T15:13:07.722Z,20.65
2019-03-08T15:15:37.229Z,20.69
2019-03-08T15:18:06.756Z,20.63
2019-03-08T15:20:37.780Z,20.72
2019-03-08T15:23:07.493Z,20.65
2019-03-08T15:25:36.984Z,20.64
2019-03-08T15:28:06.456Z,20.64
2019-03-08T15:30:35.932Z,20.62
2019-03-08T15:33:05.352Z,20.61
2019-03-08T15:35:34.737Z,20.58
2019-03-08T15:38:04.310Z,20.58
2019-03-08T15:40:33.809Z,20.51
2019-03-08T15:43:03.316Z,20.48
2019-03-08T15:45:32.941Z,20.39
2019-03-08T15:48:02.455Z,20.27
2019-03-08T15:50:31.971Z,20.21
2019-03-08T15:53:01.450Z,20.29
2019-03-08T15:55:30.843Z,20.22
2019-03-08T15:58:00.476Z,20.15
2019-03-08T16:00:40.216Z,20.04
2019-03-08T16:03:09.658Z,19.92
2019-03-08T16:05:39.066Z,19.81
2019-03-08T16:08:08.550Z,19.73
2019-03-08T16:10:38.051Z,19.68
2019-03-08T16:13:07.528Z,19.59
2019-03-08T16:15:36.970Z,19.52
2019-03-08T16:18:06.432Z,19.50
2019-03-08T16:20:37.245Z,19.45
2019-03-08T16:23:08.526Z,19.31
2019-03-08T16:25:41.197Z,19.27
2019-03-08T16:28:10.938Z,19.24
2019-03-08T16:30:43.857Z,19.10
2019-03-08T16:33:18.118Z,18.95
2019-03-08T16:35:59.709Z,18.96
2019-03-08T16:38:36.907Z,18.98
2019-03-08T16:41:34.525Z,18.85
2019-03-08T16:44:21.113Z,18.78
2019-03-08T16:47:15.067Z,18.80
2019-03-08T16:50:03.207Z,18.71
2019-03-08T16:52:45.628Z,18.63
2019-03-08T16:55:28.934Z,18.44
2019-03-08T16:58:17.436Z,18.35
2019-03-08T17:01:04.362Z,18.26
2019-03-08T17:03:52.715Z,18.17
2019-03-08T17:06:32.074Z,18.06
2019-03-08T17:09:20.589Z,18.02
2019-03-08T17:12:04.212Z,17.88
2019-03-08T17:14:45.474Z,17.88
2019-03-08T17:17:35.220Z,17.76
2019-03-08T17:20:30.565Z,17.68
2019-03-08T17:23:07.134Z,17.55
2019-03-08T17:25:49.046Z,17.38
2019-03-08T17:28:30.581Z,17.38
2019-03-08T17:31:27.948Z,17.21
2019-03-08T17:34:14.932Z,17.13
2019-03-08T17:37:01.332Z,17.05
2019-03-08T17:39:48.349Z,17.05
2019-03-08T17:42:35.431Z,16.97
2019-03-08T17:45:21.067Z,16.90
2019-03-08T17:48:15.751Z,16.88
2019-03-08T17:51:04.220Z,16.74
2019-03-08T17:54:01.331Z,16.67
2019-03-08T17:56:58.721Z,16.57
2019-03-08T17:59:34.960Z,16.55
2019-03-08T18:02:26.289Z,16.47
2019-03-08T18:05:29.532Z,16.44
2019-03-08T18:08:23.601Z,16.39
2019-03-08T18:11:10.214Z,16.31
2019-03-08T18:14:13.735Z,16.32
2019-03-08T18:17:04.106Z,16.20
2019-03-08T18:19:55.661Z,16.11
2019-03-08T18:22:32.355Z,16.11
2019-03-08T18:25:20.730Z,16.01
2019-03-08T18:28:14.573Z,15.96
2019-03-08T18:31:02.933Z,15.96
2019-03-08T18:33:41.095Z,15.94
2019-03-08T18:36:35.240Z,15.89
2019-03-08T18:39:18.859Z,15.82
2019-03-08T18:42:07.212Z,15.77
2019-03-08T18:44:52.554Z,15.75
2019-03-08T18:47:33.836Z,15.69
2019-03-08T18:50:28.163Z,15.58
2019-03-08T18:53:22.301Z,15.49
2019-03-08T18:56:02.282Z,15.39
2019-03-08T18:58:43.008Z,15.38
2019-03-08T19:01:46.509Z,15.32
2019-03-08T19:04:40.825Z,15.33
2019-03-08T19:07:27.724Z,15.36
2019-03-08T19:10:23.687Z,15.17
2019-03-08T19:13:05.040Z,15.18
2019-03-08T19:15:51.822Z,15.13
2019-03-08T19:18:48.945Z,15.04
2019-03-08T19:21:26.794Z,15.10
2019-03-08T19:24:15.138Z,15.09
2019-03-08T19:27:03.501Z,15.01
2019-03-08T19:29:47.495Z,15.05
2019-03-08T19:32:28.912Z,15.04
2019-03-08T19:35:19.839Z,15.03
2019-03-08T19:38:06.371Z,15.19
2019-03-08T19:40:43.613Z,15.20
2019-03-08T19:43:30.008Z,15.08
2019-03-08T19:46:15.753Z,14.95
2019-03-08T19:49:02.779Z,14.73
2019-03-08T19:52:00.278Z,14.58
2019-03-08T19:54:51.598Z,14.53
2019-03-08T19:57:35.679Z,14.55
2019-03-08T20:00:40.620Z,14.52
2019-03-08T20:03:28.979Z,14.43
2019-03-08T20:06:23.731Z,14.27
2019-03-08T20:09:14.247Z,14.42
2019-03-08T20:12:10.082Z,14.60
2019-03-08T20:15:07.242Z,14.62
2019-03-08T20:17:50.546Z,14.56
2019-03-08T20:20:37.635Z,14.52
2019-03-08T20:23:13.986Z,14.47
2019-03-08T20:26:01.050Z,14.38
2019-03-08T20:28:45.421Z,14.29
2019-03-08T20:31:34.024Z,14.24
2019-03-08T20:34:21.877Z,14.25
2019-03-08T20:37:10.159Z,14.18
2019-03-08T20:39:53.334Z,14.12
2019-03-08T20:42:44.702Z,14.03
2019-03-08T20:45:36.402Z,14.06
2019-03-08T20:48:06.032Z,14.01
2019-03-08T20:50:37.745Z,13.94
2019-03-08T20:53:07.162Z,13.94
2019-03-08T20:55:36.653Z,13.98
2019-03-08T20:58:06.376Z,13.93
2019-03-08T21:00:35.904Z,13.88
2019-03-08T21:03:05.366Z,13.79
2019-03-08T21:05:35.055Z,13.77
2019-03-08T21:08:04.787Z,13.74
2019-03-08T21:10:34.290Z,13.65
2019-03-08T21:13:03.696Z,13.62
2019-03-08T21:15:33.201Z,13.58
2019-03-08T21:18:02.687Z,13.51
2019-03-08T21:20:32.224Z,13.50
2019-03-08T21:23:01.891Z,13.50
2019-03-08T21:25:31.380Z,13.37
2019-03-08T21:28:00.784Z,13.35
2019-03-08T21:30:30.222Z,13.24
2019-03-08T21:32:59.744Z,13.17
2019-03-08T21:35:29.453Z,13.13
2019-03-08T21:37:58.840Z,13.15
2019-03-08T21:40:28.322Z,13.09
2019-03-08T21:42:57.820Z,12.98
2019-03-08T21:45:27.261Z,12.93
2019-03-08T21:47:57.082Z,12.90
2019-03-08T21:50:26.587Z,12.85
2019-03-08T21:52:56.087Z,12.81
2019-03-08T21:55:25.564Z,12.73
2019-03-08T21:57:54.941Z,12.65
2019-03-08T22:00:24.971Z,12.60
2019-03-08T22:02:54.533Z,12.57
2019-03-08T22:05:29.951Z,12.54
2019-03-08T22:08:00.781Z,12.53
2019-03-08T22:10:58.468Z,12.45
2019-03-08T22:13:28.001Z,12.42
2019-03-08T22:15:57.478Z,12.38
2019-03-08T22:18:26.860Z,12.48
2019-03-08T22:20:56.351Z,12.52
2019-03-08T22:23:25.846Z,12.54
2019-03-08T22:25:55.287Z,12.44
2019-03-08T22:28:24.721Z,12.40
2019-03-08T22:30:54.156Z,12.26
2019-03-08T22:33:23.809Z,12.16
2019-03-08T22:35:53.281Z,12.10
2019-03-08T22:38:22.721Z,12.02
2019-03-08T22:40:52.146Z,12.02
2019-03-08T22:43:21.606Z,12.08
2019-03-08T22:45:51.343Z,12.29
2019-03-08T22:48:20.839Z,12.29
2019-03-08T22:50:50.331Z,12.28
2019-03-08T22:53:19.758Z,12.24
2019-03-08T22:55:49.174Z,12.20
2019-03-08T22:58:18.982Z,12.07
2019-03-08T23:01:21.580Z,11.96
2019-03-08T23:03:51.038Z,11.85
2019-03-08T23:06:20.487Z,11.94
2019-03-08T23:08:49.993Z,11.94
2019-03-08T23:11:19.488Z,11.88
2019-03-08T23:13:48.869Z,11.80
2019-03-08T23:16:18.409Z,11.76
2019-03-08T23:18:47.869Z,11.66
2019-03-08T23:21:17.314Z,11.59
2019-03-08T23:23:46.793Z,11.48
2019-03-08T23:26:16.274Z,11.41
2019-03-08T23:28:49.261Z,11.34
2019-03-08T23:31:37.649Z,11.29
2019-03-08T23:34:07.143Z,11.30
2019-03-08T23:36:36.565Z,11.14
2019-03-08T23:39:08.663Z,11.13
2019-03-08T23:41:38.224Z,11.07
2019-03-08T23:44:07.714Z,11.04
2019-03-08T23:46:37.204Z,11.01
2019-03-08T23:49:06.593Z,11.07
2019-03-08T23:51:36.228Z,11.07
2019-03-08T23:54:05.851Z,11.01
2019-03-08T23:56:35.276Z,10.93
2019-03-08T23:59:04.835Z,11.02
